sensor_id;sensor_type;location;lat;lon;timestamp;P1;durP1;ratioP1;P2;durP2;ratioP2
52432;SDS011;38352;53.244;6.594;2022-12-18T00:00:56;80.68;;;29.45;;
52432;SDS011;38352;53.244;6.594;2022-12-18T00:03:22;77.38;;;31.50;;
52432;SDS011;38352;53.244;6.594;2022-12-18T00:05:48;79.65;;;29.58;;
52432;SDS011;38352;53.244;6.594;2022-12-18T00:08:15;81.28;;;28.70;;
52432;SDS011;38352;53.244;6.594;2022-12-18T00:10:42;78.72;;;28.73;;
52432;SDS011;38352;53.244;6.594;2022-12-18T00:13:08;78.38;;;29.88;;
52432;SDS011;38352;53.244;6.594;2022-12-18T00:15:35;74.90;;;29.25;;
52432;SDS011;38352;53.244;6.594;2022-12-18T00:18:01;73.88;;;28.55;;
52432;SDS011;38352;53.244;6.594;2022-12-18T00:20:27;78.95;;;31.30;;
52432;SDS011;38352;53.244;6.594;2022-12-18T00:22:53;83.47;;;30.52;;
52432;SDS011;38352;53.244;6.594;2022-12-18T00:25:19;76.18;;;29.33;;
52432;SDS011;38352;53.244;6.594;2022-12-18T00:27:45;89.82;;;29.90;;
52432;SDS011;38352;53.244;6.594;2022-12-18T00:30:12;87.90;;;30.38;;
52432;SDS011;38352;53.244;6.594;2022-12-18T00:32:38;89.13;;;28.85;;
52432;SDS011;38352;53.244;6.594;2022-12-18T00:35:04;76.97;;;26.60;;
52432;SDS011;38352;53.244;6.594;2022-12-18T00:37:32;70.90;;;29.08;;
52432;SDS011;38352;53.244;6.594;2022-12-18T00:39:58;73.70;;;27.77;;
52432;SDS011;38352;53.244;6.594;2022-12-18T00:42:24;90.32;;;32.28;;
52432;SDS011;38352;53.244;6.594;2022-12-18T00:45:09;81.72;;;28.70;;
52432;SDS011;38352;53.244;6.594;2022-12-18T00:47:35;87.03;;;31.88;;
52432;SDS011;38352;53.244;6.594;2022-12-18T00:50:01;87.93;;;32.78;;
52432;SDS011;38352;53.244;6.594;2022-12-18T00:52:27;80.50;;;29.17;;
52432;SDS011;38352;53.244;6.594;2022-12-18T00:54:53;73.53;;;31.27;;
52432;SDS011;38352;53.244;6.594;2022-12-18T00:57:19;85.20;;;30.02;;
52432;SDS011;38352;53.244;6.594;2022-12-18T00:59:45;86.32;;;31.15;;
52432;SDS011;38352;53.244;6.594;2022-12-18T01:02:11;88.78;;;30.73;;
52432;SDS011;38352;53.244;6.594;2022-12-18T01:04:37;83.50;;;30.52;;
52432;SDS011;38352;53.244;6.594;2022-12-18T01:07:04;81.13;;;28.42;;
52432;SDS011;38352;53.244;6.594;2022-12-18T01:09:30;95.53;;;31.20;;
52432;SDS011;38352;53.244;6.594;2022-12-18T01:11:56;85.55;;;28.70;;
52432;SDS011;38352;53.244;6.594;2022-12-18T01:14:22;83.18;;;31.50;;
52432;SDS011;38352;53.244;6.594;2022-12-18T01:16:48;76.15;;;28.40;;
52432;SDS011;38352;53.244;6.594;2022-12-18T01:19:14;75.68;;;27.20;;
52432;SDS011;38352;53.244;6.594;2022-12-18T01:21:40;73.72;;;28.25;;
52432;SDS011;38352;53.244;6.594;2022-12-18T01:24:06;69.93;;;25.70;;
52432;SDS011;38352;53.244;6.594;2022-12-18T01:26:32;79.15;;;27.27;;
52432;SDS011;38352;53.244;6.594;2022-12-18T01:28:58;69.63;;;27.20;;
52432;SDS011;38352;53.244;6.594;2022-12-18T01:31:26;81.90;;;28.33;;
52432;SDS011;38352;53.244;6.594;2022-12-18T01:33:52;77.22;;;27.65;;
52432;SDS011;38352;53.244;6.594;2022-12-18T01:36:19;76.93;;;27.65;;
52432;SDS011;38352;53.244;6.594;2022-12-18T01:38:46;79.05;;;28.98;;
52432;SDS011;38352;53.244;6.594;2022-12-18T01:41:13;72.70;;;28.00;;
52432;SDS011;38352;53.244;6.594;2022-12-18T01:43:43;81.03;;;28.42;;
52432;SDS011;38352;53.244;6.594;2022-12-18T01:46:09;78.50;;;27.20;;
52432;SDS011;38352;53.244;6.594;2022-12-18T01:48:35;71.35;;;26.00;;
52432;SDS011;38352;53.244;6.594;2022-12-18T01:51:01;75.35;;;27.48;;
52432;SDS011;38352;53.244;6.594;2022-12-18T01:53:27;64.47;;;26.80;;
52432;SDS011;38352;53.244;6.594;2022-12-18T01:55:57;67.78;;;24.77;;
52432;SDS011;38352;53.244;6.594;2022-12-18T01:58:47;65.43;;;26.13;;
52432;SDS011;38352;53.244;6.594;2022-12-18T02:01:10;67.55;;;25.58;;
52432;SDS011;38352;53.244;6.594;2022-12-18T02:03:36;73.63;;;27.13;;
52432;SDS011;38352;53.244;6.594;2022-12-18T02:06:13;69.22;;;27.08;;
52432;SDS011;38352;53.244;6.594;2022-12-18T02:11:30;73.10;;;27.38;;
52432;SDS011;38352;53.244;6.594;2022-12-18T02:14:12;71.85;;;26.80;;
52432;SDS011;38352;53.244;6.594;2022-12-18T02:16:44;71.55;;;26.52;;
52432;SDS011;38352;53.244;6.594;2022-12-18T02:27:06;78.45;;;29.02;;
52432;SDS011;38352;53.244;6.594;2022-12-18T02:32:30;86.75;;;29.27;;
52432;SDS011;38352;53.244;6.594;2022-12-18T02:34:57;80.18;;;28.42;;
52432;SDS011;38352;53.244;6.594;2022-12-18T02:37:24;84.82;;;32.22;;
52432;SDS011;38352;53.244;6.594;2022-12-18T02:39:51;80.82;;;30.50;;
52432;SDS011;38352;53.244;6.594;2022-12-18T02:42:18;79.68;;;29.38;;
52432;SDS011;38352;53.244;6.594;2022-12-18T02:44:46;79.35;;;28.08;;
52432;SDS011;38352;53.244;6.594;2022-12-18T02:47:12;77.53;;;27.58;;
52432;SDS011;38352;53.244;6.594;2022-12-18T02:55:33;82.60;;;26.63;;
52432;SDS011;38352;53.244;6.594;2022-12-18T03:00:16;80.75;;;28.70;;
52432;SDS011;38352;53.244;6.594;2022-12-18T03:02:48;95.43;;;29.95;;
52432;SDS011;38352;53.244;6.594;2022-12-18T03:08:00;89.13;;;31.48;;
52432;SDS011;38352;53.244;6.594;2022-12-18T03:10:30;82.82;;;29.65;;
52432;SDS011;38352;53.244;6.594;2022-12-18T03:13:05;77.22;;;28.52;;
52432;SDS011;38352;53.244;6.594;2022-12-18T03:17:59;85.88;;;29.88;;
52432;SDS011;38352;53.244;6.594;2022-12-18T03:20:25;88.88;;;28.73;;
52432;SDS011;38352;53.244;6.594;2022-12-18T03:22:54;93.00;;;31.73;;
52432;SDS011;38352;53.244;6.594;2022-12-18T03:25:23;93.70;;;32.35;;
52432;SDS011;38352;53.244;6.594;2022-12-18T03:27:52;82.28;;;30.45;;
52432;SDS011;38352;53.244;6.594;2022-12-18T03:30:19;90.40;;;29.98;;
52432;SDS011;38352;53.244;6.594;2022-12-18T03:32:51;82.60;;;29.60;;
52432;SDS011;38352;53.244;6.594;2022-12-18T03:35:25;89.80;;;34.63;;
52432;SDS011;38352;53.244;6.594;2022-12-18T03:37:52;93.28;;;35.42;;
52432;SDS011;38352;53.244;6.594;2022-12-18T03:40:20;85.22;;;30.95;;
52432;SDS011;38352;53.244;6.594;2022-12-18T03:42:51;85.30;;;31.20;;
52432;SDS011;38352;53.244;6.594;2022-12-18T03:45:19;87.57;;;34.15;;
52432;SDS011;38352;53.244;6.594;2022-12-18T03:50:23;74.60;;;28.83;;
52432;SDS011;38352;53.244;6.594;2022-12-18T03:52:51;91.45;;;30.95;;
52432;SDS011;38352;53.244;6.594;2022-12-18T03:55:19;88.25;;;33.85;;
52432;SDS011;38352;53.244;6.594;2022-12-18T03:57:47;82.65;;;30.05;;
52432;SDS011;38352;53.244;6.594;2022-12-18T04:00:14;90.05;;;33.30;;
52432;SDS011;38352;53.244;6.594;2022-12-18T04:02:52;87.65;;;29.98;;
52432;SDS011;38352;53.244;6.594;2022-12-18T04:05:19;86.38;;;31.77;;
52432;SDS011;38352;53.244;6.594;2022-12-18T04:07:47;85.45;;;32.53;;
52432;SDS011;38352;53.244;6.594;2022-12-18T04:10:14;72.25;;;31.23;;
52432;SDS011;38352;53.244;6.594;2022-12-18T04:12:40;86.68;;;29.45;;
52432;SDS011;38352;53.244;6.594;2022-12-18T04:15:07;80.57;;;30.20;;
52432;SDS011;38352;53.244;6.594;2022-12-18T04:17:33;72.30;;;30.10;;
52432;SDS011;38352;53.244;6.594;2022-12-18T04:19:59;88.97;;;32.65;;
52432;SDS011;38352;53.244;6.594;2022-12-18T04:22:25;74.45;;;27.83;;
52432;SDS011;38352;53.244;6.594;2022-12-18T04:24:51;93.32;;;32.78;;
52432;SDS011;38352;53.244;6.594;2022-12-18T04:27:17;91.90;;;30.27;;
52432;SDS011;38352;53.244;6.594;2022-12-18T04:29:43;83.65;;;30.02;;
52432;SDS011;38352;53.244;6.594;2022-12-18T04:32:10;86.70;;;28.55;;
52432;SDS011;38352;53.244;6.594;2022-12-18T04:34:36;74.57;;;30.63;;
52432;SDS011;38352;53.244;6.594;2022-12-18T04:37:02;87.00;;;30.80;;
52432;SDS011;38352;53.244;6.594;2022-12-18T04:39:28;77.47;;;29.35;;
52432;SDS011;38352;53.244;6.594;2022-12-18T04:41:54;71.28;;;26.83;;
52432;SDS011;38352;53.244;6.594;2022-12-18T04:44:20;82.68;;;29.55;;
52432;SDS011;38352;53.244;6.594;2022-12-18T04:46:46;73.18;;;27.45;;
52432;SDS011;38352;53.244;6.594;2022-12-18T04:49:12;77.32;;;29.33;;
52432;SDS011;38352;53.244;6.594;2022-12-18T04:51:39;82.65;;;28.92;;
52432;SDS011;38352;53.244;6.594;2022-12-18T04:54:05;78.78;;;27.60;;
52432;SDS011;38352;53.244;6.594;2022-12-18T04:56:31;78.57;;;27.45;;
52432;SDS011;38352;53.244;6.594;2022-12-18T04:58:57;69.25;;;27.60;;
52432;SDS011;38352;53.244;6.594;2022-12-18T05:01:23;70.90;;;27.05;;
52432;SDS011;38352;53.244;6.594;2022-12-18T05:03:51;81.78;;;28.70;;
52432;SDS011;38352;53.244;6.594;2022-12-18T05:06:17;83.72;;;29.92;;
52432;SDS011;38352;53.244;6.594;2022-12-18T05:08:44;77.47;;;27.95;;
52432;SDS011;38352;53.244;6.594;2022-12-18T05:11:11;74.28;;;26.10;;
52432;SDS011;38352;53.244;6.594;2022-12-18T05:13:40;76.20;;;27.17;;
52432;SDS011;38352;53.244;6.594;2022-12-18T05:16:07;70.57;;;26.92;;
52432;SDS011;38352;53.244;6.594;2022-12-18T05:18:33;74.53;;;25.00;;
52432;SDS011;38352;53.244;6.594;2022-12-18T05:20:59;69.80;;;26.35;;
52432;SDS011;38352;53.244;6.594;2022-12-18T05:23:25;72.53;;;28.50;;
52432;SDS011;38352;53.244;6.594;2022-12-18T05:25:56;64.47;;;27.05;;
52432;SDS011;38352;53.244;6.594;2022-12-18T05:28:23;69.57;;;26.77;;
52432;SDS011;38352;53.244;6.594;2022-12-18T05:30:50;57.60;;;23.17;;
52432;SDS011;38352;53.244;6.594;2022-12-18T05:33:17;68.38;;;25.73;;
52432;SDS011;38352;53.244;6.594;2022-12-18T05:35:43;73.45;;;27.17;;
52432;SDS011;38352;53.244;6.594;2022-12-18T05:38:09;71.88;;;27.83;;
52432;SDS011;38352;53.244;6.594;2022-12-18T05:40:35;79.30;;;26.40;;
52432;SDS011;38352;53.244;6.594;2022-12-18T05:43:02;74.78;;;25.77;;
52432;SDS011;38352;53.244;6.594;2022-12-18T05:45:28;70.22;;;26.58;;
52432;SDS011;38352;53.244;6.594;2022-12-18T05:47:54;80.63;;;27.15;;
52432;SDS011;38352;53.244;6.594;2022-12-18T05:50:20;60.22;;;26.23;;
52432;SDS011;38352;53.244;6.594;2022-12-18T05:52:46;58.47;;;25.85;;
52432;SDS011;38352;53.244;6.594;2022-12-18T05:55:12;62.22;;;25.35;;
52432;SDS011;38352;53.244;6.594;2022-12-18T05:57:38;64.13;;;27.13;;
52432;SDS011;38352;53.244;6.594;2022-12-18T06:00:04;61.70;;;23.60;;
52432;SDS011;38352;53.244;6.594;2022-12-18T06:02:30;60.63;;;23.70;;
52432;SDS011;38352;53.244;6.594;2022-12-18T06:04:56;56.63;;;24.17;;
52432;SDS011;38352;53.244;6.594;2022-12-18T06:07:22;62.88;;;24.42;;
52432;SDS011;38352;53.244;6.594;2022-12-18T06:09:49;54.90;;;23.48;;
52432;SDS011;38352;53.244;6.594;2022-12-18T06:12:15;59.75;;;24.98;;
52432;SDS011;38352;53.244;6.594;2022-12-18T06:14:41;60.38;;;23.08;;
52432;SDS011;38352;53.244;6.594;2022-12-18T06:17:07;60.72;;;23.50;;
52432;SDS011;38352;53.244;6.594;2022-12-18T06:19:33;61.83;;;23.20;;
52432;SDS011;38352;53.244;6.594;2022-12-18T06:22:00;60.33;;;23.63;;
52432;SDS011;38352;53.244;6.594;2022-12-18T06:24:26;55.22;;;23.45;;
52432;SDS011;38352;53.244;6.594;2022-12-18T06:26:52;60.75;;;25.00;;
52432;SDS011;38352;53.244;6.594;2022-12-18T06:29:18;52.75;;;23.17;;
52432;SDS011;38352;53.244;6.594;2022-12-18T06:31:44;58.33;;;23.55;;
52432;SDS011;38352;53.244;6.594;2022-12-18T06:34:10;57.78;;;22.85;;
52432;SDS011;38352;53.244;6.594;2022-12-18T06:36:36;51.03;;;21.85;;
52432;SDS011;38352;53.244;6.594;2022-12-18T06:39:03;51.03;;;23.55;;
52432;SDS011;38352;53.244;6.594;2022-12-18T06:41:29;58.35;;;23.67;;
52432;SDS011;38352;53.244;6.594;2022-12-18T06:43:55;52.58;;;24.33;;
52432;SDS011;38352;53.244;6.594;2022-12-18T06:46:21;60.45;;;23.00;;
52432;SDS011;38352;53.244;6.594;2022-12-18T06:48:47;56.17;;;22.08;;
52432;SDS011;38352;53.244;6.594;2022-12-18T06:51:18;51.60;;;21.38;;
52432;SDS011;38352;53.244;6.594;2022-12-18T06:53:44;50.42;;;21.88;;
52432;SDS011;38352;53.244;6.594;2022-12-18T06:56:11;52.70;;;21.67;;
52432;SDS011;38352;53.244;6.594;2022-12-18T06:58:40;52.35;;;21.67;;
52432;SDS011;38352;53.244;6.594;2022-12-18T07:01:07;47.00;;;22.00;;
52432;SDS011;38352;53.244;6.594;2022-12-18T07:03:34;44.40;;;19.92;;
52432;SDS011;38352;53.244;6.594;2022-12-18T07:06:00;47.90;;;21.25;;
52432;SDS011;38352;53.244;6.594;2022-12-18T07:08:26;52.70;;;21.02;;
52432;SDS011;38352;53.244;6.594;2022-12-18T07:10:52;48.25;;;20.33;;
52432;SDS011;38352;53.244;6.594;2022-12-18T07:13:19;53.80;;;20.88;;
52432;SDS011;38352;53.244;6.594;2022-12-18T07:15:45;43.08;;;19.63;;
52432;SDS011;38352;53.244;6.594;2022-12-18T07:18:11;45.22;;;19.55;;
52432;SDS011;38352;53.244;6.594;2022-12-18T07:20:37;45.10;;;18.48;;
52432;SDS011;38352;53.244;6.594;2022-12-18T07:23:03;48.60;;;20.35;;
52432;SDS011;38352;53.244;6.594;2022-12-18T07:25:33;52.70;;;20.45;;
52432;SDS011;38352;53.244;6.594;2022-12-18T07:27:59;43.80;;;19.40;;
52432;SDS011;38352;53.244;6.594;2022-12-18T07:30:26;43.72;;;20.77;;
52432;SDS011;38352;53.244;6.594;2022-12-18T07:32:52;45.80;;;18.27;;
52432;SDS011;38352;53.244;6.594;2022-12-18T07:35:18;41.65;;;18.58;;
52432;SDS011;38352;53.244;6.594;2022-12-18T07:37:44;48.83;;;18.73;;
52432;SDS011;38352;53.244;6.594;2022-12-18T07:40:10;43.00;;;19.20;;
52432;SDS011;38352;53.244;6.594;2022-12-18T07:42:37;42.58;;;18.95;;
52432;SDS011;38352;53.244;6.594;2022-12-18T07:45:03;43.33;;;19.02;;
52432;SDS011;38352;53.244;6.594;2022-12-18T07:47:29;46.97;;;19.30;;
52432;SDS011;38352;53.244;6.594;2022-12-18T07:49:55;41.25;;;18.40;;
52432;SDS011;38352;53.244;6.594;2022-12-18T07:52:21;47.38;;;19.90;;
52432;SDS011;38352;53.244;6.594;2022-12-18T07:54:48;41.72;;;18.52;;
52432;SDS011;38352;53.244;6.594;2022-12-18T07:57:15;39.55;;;16.92;;
52432;SDS011;38352;53.244;6.594;2022-12-18T07:59:41;38.63;;;17.27;;
52432;SDS011;38352;53.244;6.594;2022-12-18T08:02:07;41.63;;;18.30;;
52432;SDS011;38352;53.244;6.594;2022-12-18T08:04:34;44.40;;;19.25;;
52432;SDS011;38352;53.244;6.594;2022-12-18T08:07:00;39.60;;;19.20;;
52432;SDS011;38352;53.244;6.594;2022-12-18T08:09:26;43.67;;;17.40;;
52432;SDS011;38352;53.244;6.594;2022-12-18T08:11:52;37.60;;;18.27;;
52432;SDS011;38352;53.244;6.594;2022-12-18T08:14:19;40.85;;;18.35;;
52432;SDS011;38352;53.244;6.594;2022-12-18T08:16:45;40.10;;;18.63;;
52432;SDS011;38352;53.244;6.594;2022-12-18T08:19:11;39.80;;;19.30;;
52432;SDS011;38352;53.244;6.594;2022-12-18T08:21:37;39.28;;;17.77;;
52432;SDS011;38352;53.244;6.594;2022-12-18T08:24:03;34.45;;;17.95;;
52432;SDS011;38352;53.244;6.594;2022-12-18T08:26:30;40.72;;;19.13;;
52432;SDS011;38352;53.244;6.594;2022-12-18T08:28:57;40.90;;;18.48;;
52432;SDS011;38352;53.244;6.594;2022-12-18T08:31:24;42.63;;;18.35;;
52432;SDS011;38352;53.244;6.594;2022-12-18T08:33:51;41.53;;;19.35;;
52432;SDS011;38352;53.244;6.594;2022-12-18T08:36:17;42.03;;;18.20;;
52432;SDS011;38352;53.244;6.594;2022-12-18T08:38:44;36.45;;;17.92;;
52432;SDS011;38352;53.244;6.594;2022-12-18T08:41:11;41.65;;;19.10;;
52432;SDS011;38352;53.244;6.594;2022-12-18T08:43:37;40.05;;;18.45;;
52432;SDS011;38352;53.244;6.594;2022-12-18T08:46:23;42.03;;;18.73;;
52432;SDS011;38352;53.244;6.594;2022-12-18T08:48:50;43.22;;;18.75;;
52432;SDS011;38352;53.244;6.594;2022-12-18T08:51:16;37.88;;;16.98;;
52432;SDS011;38352;53.244;6.594;2022-12-18T08:53:43;38.67;;;17.90;;
52432;SDS011;38352;53.244;6.594;2022-12-18T08:56:09;32.15;;;16.77;;
52432;SDS011;38352;53.244;6.594;2022-12-18T08:58:36;36.08;;;17.95;;
52432;SDS011;38352;53.244;6.594;2022-12-18T09:01:11;36.75;;;17.80;;
52432;SDS011;38352;53.244;6.594;2022-12-18T09:03:38;35.88;;;17.63;;
52432;SDS011;38352;53.244;6.594;2022-12-18T09:06:05;37.72;;;17.50;;
52432;SDS011;38352;53.244;6.594;2022-12-18T09:08:31;38.42;;;17.08;;
52432;SDS011;38352;53.244;6.594;2022-12-18T09:10:58;38.05;;;18.10;;
52432;SDS011;38352;53.244;6.594;2022-12-18T09:13:24;34.47;;;16.40;;
52432;SDS011;38352;53.244;6.594;2022-12-18T09:15:51;42.47;;;18.38;;
52432;SDS011;38352;53.244;6.594;2022-12-18T09:18:19;36.22;;;18.35;;
52432;SDS011;38352;53.244;6.594;2022-12-18T09:20:45;41.40;;;17.48;;
52432;SDS011;38352;53.244;6.594;2022-12-18T09:23:12;37.10;;;17.58;;
52432;SDS011;38352;53.244;6.594;2022-12-18T09:25:38;34.33;;;16.02;;
52432;SDS011;38352;53.244;6.594;2022-12-18T09:28:05;37.13;;;16.95;;
52432;SDS011;38352;53.244;6.594;2022-12-18T09:30:32;31.88;;;16.00;;
52432;SDS011;38352;53.244;6.594;2022-12-18T09:32:59;31.55;;;16.65;;
52432;SDS011;38352;53.244;6.594;2022-12-18T09:35:25;36.17;;;16.60;;
52432;SDS011;38352;53.244;6.594;2022-12-18T09:37:52;34.97;;;16.80;;
52432;SDS011;38352;53.244;6.594;2022-12-18T09:40:19;28.85;;;14.43;;
52432;SDS011;38352;53.244;6.594;2022-12-18T09:42:48;37.58;;;16.63;;
52432;SDS011;38352;53.244;6.594;2022-12-18T09:45:16;30.75;;;16.38;;
52432;SDS011;38352;53.244;6.594;2022-12-18T09:47:46;30.60;;;14.57;;
52432;SDS011;38352;53.244;6.594;2022-12-18T09:52:43;29.83;;;13.95;;
52432;SDS011;38352;53.244;6.594;2022-12-18T09:57:45;26.88;;;14.23;;
52432;SDS011;38352;53.244;6.594;2022-12-18T10:00:17;28.23;;;13.48;;
52432;SDS011;38352;53.244;6.594;2022-12-18T10:02:45;30.20;;;14.43;;
52432;SDS011;38352;53.244;6.594;2022-12-18T10:05:12;28.40;;;14.75;;
52432;SDS011;38352;53.244;6.594;2022-12-18T10:10:13;31.50;;;14.68;;
52432;SDS011;38352;53.244;6.594;2022-12-18T10:13:30;23.70;;;13.40;;
52432;SDS011;38352;53.244;6.594;2022-12-18T10:15:34;27.08;;;12.75;;
52432;SDS011;38352;53.244;6.594;2022-12-18T10:18:14;23.42;;;12.23;;
52432;SDS011;38352;53.244;6.594;2022-12-18T10:20:49;29.13;;;12.30;;
52432;SDS011;38352;53.244;6.594;2022-12-18T10:28:23;24.15;;;12.13;;
52432;SDS011;38352;53.244;6.594;2022-12-18T10:30:50;24.30;;;12.35;;
52432;SDS011;38352;53.244;6.594;2022-12-18T10:33:17;20.42;;;11.10;;
52432;SDS011;38352;53.244;6.594;2022-12-18T10:35:43;23.17;;;12.52;;
52432;SDS011;38352;53.244;6.594;2022-12-18T10:41:22;18.95;;;11.20;;
52432;SDS011;38352;53.244;6.594;2022-12-18T10:43:32;20.73;;;10.13;;
52432;SDS011;38352;53.244;6.594;2022-12-18T10:48:25;21.40;;;10.65;;
52432;SDS011;38352;53.244;6.594;2022-12-18T10:50:52;19.40;;;9.90;;
52432;SDS011;38352;53.244;6.594;2022-12-18T10:53:22;15.38;;;9.52;;
52432;SDS011;38352;53.244;6.594;2022-12-18T10:55:50;19.35;;;8.45;;
52432;SDS011;38352;53.244;6.594;2022-12-18T11:03:29;14.85;;;8.88;;
52432;SDS011;38352;53.244;6.594;2022-12-18T11:06:01;17.25;;;8.90;;
52432;SDS011;38352;53.244;6.594;2022-12-18T11:08:28;15.50;;;8.75;;
52432;SDS011;38352;53.244;6.594;2022-12-18T11:10:54;13.90;;;8.43;;
52432;SDS011;38352;53.244;6.594;2022-12-18T11:13:23;15.82;;;8.70;;
52432;SDS011;38352;53.244;6.594;2022-12-18T11:15:50;16.08;;;8.88;;
52432;SDS011;38352;53.244;6.594;2022-12-18T11:18:25;16.02;;;8.35;;
52432;SDS011;38352;53.244;6.594;2022-12-18T11:23:33;15.05;;;8.05;;
52432;SDS011;38352;53.244;6.594;2022-12-18T11:26:01;12.50;;;7.38;;
52432;SDS011;38352;53.244;6.594;2022-12-18T11:28:35;15.73;;;7.55;;
52432;SDS011;38352;53.244;6.594;2022-12-18T11:36:21;13.60;;;8.30;;
52432;SDS011;38352;53.244;6.594;2022-12-18T11:38:47;13.35;;;7.80;;
52432;SDS011;38352;53.244;6.594;2022-12-18T11:43:58;13.88;;;7.57;;
52432;SDS011;38352;53.244;6.594;2022-12-18T11:46:30;15.00;;;7.53;;
52432;SDS011;38352;53.244;6.594;2022-12-18T11:48:58;12.07;;;7.35;;
52432;SDS011;38352;53.244;6.594;2022-12-18T11:51:33;15.20;;;8.20;;
52432;SDS011;38352;53.244;6.594;2022-12-18T11:54:00;12.27;;;7.03;;
52432;SDS011;38352;53.244;6.594;2022-12-18T11:56:31;14.60;;;7.60;;
52432;SDS011;38352;53.244;6.594;2022-12-18T12:14:37;12.57;;;6.78;;
52432;SDS011;38352;53.244;6.594;2022-12-18T12:40:35;13.30;;;6.63;;
52432;SDS011;38352;53.244;6.594;2022-12-18T12:43:10;13.13;;;6.07;;
52432;SDS011;38352;53.244;6.594;2022-12-18T12:45:48;12.55;;;6.22;;
52432;SDS011;38352;53.244;6.594;2022-12-18T12:48:16;10.23;;;5.60;;
52432;SDS011;38352;53.244;6.594;2022-12-18T12:50:43;11.77;;;5.90;;
52432;SDS011;38352;53.244;6.594;2022-12-18T12:53:15;8.68;;;5.07;;
52432;SDS011;38352;53.244;6.594;2022-12-18T12:55:42;11.80;;;5.40;;
52432;SDS011;38352;53.244;6.594;2022-12-18T13:00:43;10.98;;;5.68;;
52432;SDS011;38352;53.244;6.594;2022-12-18T13:08:08;13.68;;;5.88;;
52432;SDS011;38352;53.244;6.594;2022-12-18T13:10:36;14.63;;;6.32;;
52432;SDS011;38352;53.244;6.594;2022-12-18T13:13:07;12.60;;;6.43;;
52432;SDS011;38352;53.244;6.594;2022-12-18T13:15:36;10.63;;;5.68;;
52432;SDS011;38352;53.244;6.594;2022-12-18T13:20:34;9.90;;;5.55;;
52432;SDS011;38352;53.244;6.594;2022-12-18T13:23:01;12.60;;;6.47;;
52432;SDS011;38352;53.244;6.594;2022-12-18T13:25:44;13.15;;;6.20;;
52432;SDS011;38352;53.244;6.594;2022-12-18T13:28:14;11.45;;;5.70;;
52432;SDS011;38352;53.244;6.594;2022-12-18T13:41:00;11.07;;;5.50;;
52432;SDS011;38352;53.244;6.594;2022-12-18T13:49:02;11.70;;;5.28;;
52432;SDS011;38352;53.244;6.594;2022-12-18T13:51:30;12.10;;;5.10;;
52432;SDS011;38352;53.244;6.594;2022-12-18T13:53:59;9.68;;;5.40;;
52432;SDS011;38352;53.244;6.594;2022-12-18T13:56:27;13.80;;;6.10;;
52432;SDS011;38352;53.244;6.594;2022-12-18T13:59:03;12.45;;;6.03;;
52432;SDS011;38352;53.244;6.594;2022-12-18T14:01:34;11.65;;;5.75;;
52432;SDS011;38352;53.244;6.594;2022-12-18T14:04:18;10.55;;;5.55;;
52432;SDS011;38352;53.244;6.594;2022-12-18T14:09:45;11.02;;;5.65;;
52432;SDS011;38352;53.244;6.594;2022-12-18T14:12:03;11.63;;;5.80;;
52432;SDS011;38352;53.244;6.594;2022-12-18T14:14:49;10.98;;;5.45;;
52432;SDS011;38352;53.244;6.594;2022-12-18T14:17:16;9.63;;;6.05;;
52432;SDS011;38352;53.244;6.594;2022-12-18T14:19:46;10.52;;;5.85;;
52432;SDS011;38352;53.244;6.594;2022-12-18T14:22:14;10.38;;;6.00;;
52432;SDS011;38352;53.244;6.594;2022-12-18T14:24:41;11.00;;;5.95;;
52432;SDS011;38352;53.244;6.594;2022-12-18T14:27:20;11.05;;;5.60;;
52432;SDS011;38352;53.244;6.594;2022-12-18T14:29:47;12.98;;;6.78;;
52432;SDS011;38352;53.244;6.594;2022-12-18T14:32:14;13.18;;;6.10;;
52432;SDS011;38352;53.244;6.594;2022-12-18T14:34:42;11.75;;;6.05;;
52432;SDS011;38352;53.244;6.594;2022-12-18T14:37:09;11.68;;;6.30;;
52432;SDS011;38352;53.244;6.594;2022-12-18T14:39:36;13.20;;;6.85;;
52432;SDS011;38352;53.244;6.594;2022-12-18T14:42:02;12.48;;;6.22;;
52432;SDS011;38352;53.244;6.594;2022-12-18T14:44:28;11.43;;;5.80;;
52432;SDS011;38352;53.244;6.594;2022-12-18T14:46:55;13.02;;;7.15;;
52432;SDS011;38352;53.244;6.594;2022-12-18T14:49:31;13.60;;;6.90;;
52432;SDS011;38352;53.244;6.594;2022-12-18T14:51:59;13.07;;;6.78;;
52432;SDS011;38352;53.244;6.594;2022-12-18T14:54:26;12.50;;;6.45;;
52432;SDS011;38352;53.244;6.594;2022-12-18T14:57:02;14.02;;;6.78;;
52432;SDS011;38352;53.244;6.594;2022-12-18T14:59:29;13.95;;;6.40;;
52432;SDS011;38352;53.244;6.594;2022-12-18T15:04:33;12.68;;;7.35;;
52432;SDS011;38352;53.244;6.594;2022-12-18T15:07:12;17.00;;;8.77;;
52432;SDS011;38352;53.244;6.594;2022-12-18T15:09:39;12.48;;;7.22;;
52432;SDS011;38352;53.244;6.594;2022-12-18T15:14:52;15.93;;;8.57;;
52432;SDS011;38352;53.244;6.594;2022-12-18T15:17:19;15.43;;;8.60;;
52432;SDS011;38352;53.244;6.594;2022-12-18T15:19:47;13.98;;;7.57;;
52432;SDS011;38352;53.244;6.594;2022-12-18T15:22:24;14.73;;;8.82;;
52432;SDS011;38352;53.244;6.594;2022-12-18T15:24:50;13.88;;;7.60;;
52432;SDS011;38352;53.244;6.594;2022-12-18T15:29:59;15.82;;;9.27;;
52432;SDS011;38352;53.244;6.594;2022-12-18T15:32:25;17.65;;;8.65;;
52432;SDS011;38352;53.244;6.594;2022-12-18T15:35:01;15.75;;;8.85;;
52432;SDS011;38352;53.244;6.594;2022-12-18T15:37:27;14.00;;;8.48;;
52432;SDS011;38352;53.244;6.594;2022-12-18T15:39:53;15.25;;;8.20;;
52432;SDS011;38352;53.244;6.594;2022-12-18T15:42:19;19.60;;;9.23;;
52432;SDS011;38352;53.244;6.594;2022-12-18T15:45:04;14.45;;;8.68;;
52432;SDS011;38352;53.244;6.594;2022-12-18T15:47:30;15.45;;;9.27;;
52432;SDS011;38352;53.244;6.594;2022-12-18T15:49:57;19.23;;;9.15;;
52432;SDS011;38352;53.244;6.594;2022-12-18T15:52:23;18.20;;;8.77;;
52432;SDS011;38352;53.244;6.594;2022-12-18T15:54:51;13.60;;;8.90;;
52432;SDS011;38352;53.244;6.594;2022-12-18T15:57:35;17.55;;;9.43;;
52432;SDS011;38352;53.244;6.594;2022-12-18T16:00:02;19.33;;;9.32;;
52432;SDS011;38352;53.244;6.594;2022-12-18T16:02:28;95.70;;;43.15;;
52432;SDS011;38352;53.244;6.594;2022-12-18T16:04:54;29.48;;;19.05;;
52432;SDS011;38352;53.244;6.594;2022-12-18T16:07:20;24.63;;;15.52;;
52432;SDS011;38352;53.244;6.594;2022-12-18T16:09:47;52.17;;;32.83;;
52432;SDS011;38352;53.244;6.594;2022-12-18T16:12:22;19.42;;;11.20;;
52432;SDS011;38352;53.244;6.594;2022-12-18T16:14:50;21.60;;;15.07;;
52432;SDS011;38352;53.244;6.594;2022-12-18T16:17:17;18.27;;;10.45;;
52432;SDS011;38352;53.244;6.594;2022-12-18T16:19:43;17.52;;;11.05;;
52432;SDS011;38352;53.244;6.594;2022-12-18T16:22:43;18.35;;;9.88;;
52432;SDS011;38352;53.244;6.594;2022-12-18T16:25:02;16.98;;;9.15;;
52432;SDS011;38352;53.244;6.594;2022-12-18T16:27:30;17.05;;;9.52;;
52432;SDS011;38352;53.244;6.594;2022-12-18T16:29:56;18.98;;;9.88;;
52432;SDS011;38352;53.244;6.594;2022-12-18T16:32:22;20.38;;;11.80;;
52432;SDS011;38352;53.244;6.594;2022-12-18T16:34:48;20.27;;;10.68;;
52432;SDS011;38352;53.244;6.594;2022-12-18T16:37:14;37.85;;;24.30;;
52432;SDS011;38352;53.244;6.594;2022-12-18T16:39:41;16.55;;;8.23;;
52432;SDS011;38352;53.244;6.594;2022-12-18T16:42:14;25.08;;;17.02;;
52432;SDS011;38352;53.244;6.594;2022-12-18T16:44:42;34.00;;;19.05;;
52432;SDS011;38352;53.244;6.594;2022-12-18T16:47:08;36.03;;;27.90;;
52432;SDS011;38352;53.244;6.594;2022-12-18T16:49:34;19.08;;;9.60;;